createdAt,value
2022-08-18T00:00:00.084Z,993.73
2022-08-18T00:05:00.111Z,993.73
2022-08-18T00:10:00.084Z,993.76
2022-08-18T00:15:00.109Z,993.79
2022-08-18T00:20:00.099Z,993.64
2022-08-18T00:25:00.118Z,993.69
2022-08-18T00:30:00.169Z,993.65
2022-08-18T00:35:00.143Z,993.66
2022-08-18T00:40:00.243Z,993.72
2022-08-18T00:45:00.134Z,993.56
2022-08-18T00:50:00.117Z,993.53
2022-08-18T00:55:00.117Z,993.48
2022-08-18T01:00:00.224Z,993.55
2022-08-18T01:05:00.139Z,993.62
2022-08-18T01:10:00.115Z,993.63
2022-08-18T01:15:00.134Z,993.58
2022-08-18T01:20:00.106Z,993.49
2022-08-18T01:25:00.151Z,993.6
2022-08-18T01:30:00.094Z,993.57
2022-08-18T01:35:00.116Z,993.49
2022-08-18T01:41:00.628Z,993.55
2022-08-18T01:45:00.133Z,993.53
2022-08-18T01:50:00.171Z,993.5
2022-08-18T01:55:00.134Z,993.36
2022-08-18T02:00:00.138Z,993.38
2022-08-18T02:05:00.119Z,993.41
2022-08-18T02:10:00.143Z,993.42
2022-08-18T02:15:00.113Z,993.3
2022-08-18T02:20:00.138Z,993.31
2022-08-18T02:25:00.105Z,993.35
2022-08-18T02:30:00.171Z,993.49
2022-08-18T02:35:00.138Z,993.41
2022-08-18T02:40:00.281Z,993.44
2022-08-18T02:45:00.117Z,993.34
2022-08-18T02:50:00.125Z,993.35
2022-08-18T02:55:00.213Z,993.43
2022-08-18T03:00:00.198Z,993.38
2022-08-18T03:05:00.123Z,993.4
2022-08-18T03:10:31.258Z,993.43
2022-08-18T03:15:00.131Z,993.47
2022-08-18T03:20:00.144Z,993.47
2022-08-18T03:25:00.094Z,993.58
2022-08-18T03:30:00.135Z,993.63
2022-08-18T03:35:00.109Z,993.67
2022-08-18T03:40:00.185Z,993.69
2022-08-18T03:45:00.095Z,993.66
2022-08-18T03:50:00.162Z,993.69
2022-08-18T03:55:00.140Z,993.78
2022-08-18T04:00:00.090Z,993.68
2022-08-18T04:05:00.111Z,993.67
2022-08-18T04:10:00.101Z,993.62
2022-08-18T04:15:00.115Z,993.6
2022-08-18T04:20:00.086Z,993.73
2022-08-18T04:25:00.090Z,993.61
2022-08-18T04:30:00.108Z,993.66
2022-08-18T04:35:02.671Z,993.69
2022-08-18T04:40:00.216Z,993.75
2022-08-18T04:45:00.112Z,993.8
2022-08-18T04:50:00.111Z,993.86
2022-08-18T04:55:00.102Z,993.82
2022-08-18T05:00:00.111Z,993.92
2022-08-18T05:05:00.106Z,993.93
2022-08-18T05:10:00.099Z,993.98
2022-08-18T05:15:00.128Z,994
2022-08-18T05:20:00.909Z,994.13
2022-08-18T05:25:00.264Z,994.1
2022-08-18T05:30:00.110Z,994.1
2022-08-18T05:35:00.086Z,994.07
2022-08-18T05:40:00.257Z,994.08
2022-08-18T05:45:00.119Z,994.11
2022-08-18T05:50:00.128Z,994.19
2022-08-18T05:55:00.093Z,994.17
2022-08-18T06:00:00.145Z,994.27
2022-08-18T06:05:00.087Z,994.24
2022-08-18T06:10:00.098Z,994.19
2022-08-18T06:15:00.090Z,994.2
2022-08-18T06:20:00.081Z,994.2
2022-08-18T06:25:00.107Z,994.18
2022-08-18T06:30:00.162Z,994.22
2022-08-18T06:35:00.088Z,994.25
2022-08-18T06:40:00.189Z,994.23
2022-08-18T06:45:00.104Z,994.13
2022-08-18T06:50:00.115Z,994.21
2022-08-18T06:55:00.110Z,994.29
2022-08-18T07:00:00.133Z,994.38
2022-08-18T07:05:00.113Z,994.39
2022-08-18T07:10:00.085Z,994.51
2022-08-18T07:15:00.094Z,994.63
2022-08-18T07:20:00.109Z,994.68
2022-08-18T07:25:04.572Z,994.82
2022-08-18T07:30:00.115Z,994.8
2022-08-18T07:35:00.095Z,994.95
2022-08-18T07:40:00.178Z,994.97
2022-08-18T07:45:00.108Z,994.96
2022-08-18T07:50:18.570Z,994.9
2022-08-18T07:55:00.118Z,994.98
2022-08-18T08:00:00.170Z,994.98
2022-08-18T08:05:00.117Z,994.94
2022-08-18T08:10:00.148Z,994.97
2022-08-18T08:15:00.108Z,995.01
2022-08-18T08:20:01.457Z,994.94
2022-08-18T08:25:00.101Z,994.94
2022-08-18T08:30:00.139Z,994.86
2022-08-18T08:35:00.103Z,994.82
2022-08-18T08:40:00.210Z,994.83
2022-08-18T08:45:00.415Z,994.75
2022-08-18T08:50:00.457Z,994.92
2022-08-18T08:55:00.097Z,994.78
2022-08-18T09:00:00.110Z,994.92
2022-08-18T09:05:07.374Z,994.94
2022-08-18T09:10:00.104Z,995
2022-08-18T09:15:00.116Z,995.03
2022-08-18T09:20:00.160Z,994.69
2022-08-18T09:25:00.093Z,994.66
2022-08-18T09:30:00.104Z,994.47
2022-08-18T09:35:00.121Z,994.48
2022-08-18T09:40:00.176Z,994.53
2022-08-18T09:45:00.092Z,994.65
2022-08-18T09:50:01.918Z,994.61
2022-08-18T09:55:00.132Z,994.68
2022-08-18T10:00:00.181Z,994.78
2022-08-18T10:05:00.088Z,994.69
2022-08-18T10:10:00.663Z,994.72
2022-08-18T10:15:00.101Z,994.58
2022-08-18T10:20:00.075Z,994.69
2022-08-18T10:25:09.386Z,994.63
2022-08-18T10:30:00.091Z,994.75
2022-08-18T10:35:00.111Z,994.77
2022-08-18T10:40:00.154Z,994.7
2022-08-18T10:45:00.160Z,994.75
2022-08-18T10:50:00.113Z,994.81
2022-08-18T10:55:00.112Z,994.79
2022-08-18T11:00:00.170Z,994.75
2022-08-18T11:05:00.180Z,994.68
2022-08-18T11:10:28.127Z,994.75
2022-08-18T11:15:00.135Z,994.64
2022-08-18T11:20:00.097Z,994.71
2022-08-18T11:25:00.120Z,994.83
2022-08-18T11:30:00.177Z,994.99
2022-08-18T11:35:00.116Z,994.99
2022-08-18T11:40:00.257Z,995.05
2022-08-18T11:45:00.101Z,994.93
2022-08-18T11:50:00.189Z,994.98
2022-08-18T11:55:00.136Z,994.98
2022-08-18T12:00:00.690Z,994.89
2022-08-18T12:05:00.105Z,994.9
2022-08-18T12:10:17.616Z,994.85
2022-08-18T12:15:05.203Z,994.92
2022-08-18T12:20:00.104Z,995.01
2022-08-18T12:25:00.101Z,995.01
2022-08-18T12:30:00.113Z,995.02
2022-08-18T12:35:05.261Z,995.09
2022-08-18T12:40:00.161Z,995.17
2022-08-18T12:45:00.117Z,995.26
2022-08-18T12:50:01.299Z,995.23
2022-08-18T12:55:00.105Z,995.04
2022-08-18T13:00:00.165Z,994.9
2022-08-18T13:05:00.235Z,994.88
2022-08-18T13:10:00.091Z,994.83
2022-08-18T13:15:00.100Z,994.71
2022-08-18T13:20:00.388Z,994.47
2022-08-18T13:25:00.098Z,994.17
2022-08-18T13:30:00.129Z,994.11
2022-08-18T13:35:00.119Z,994.17
2022-08-18T13:40:00.211Z,994.01
2022-08-18T13:45:23.083Z,994.05
2022-08-18T13:50:00.173Z,994.05
2022-08-18T13:55:00.121Z,993.93
2022-08-18T14:00:00.192Z,993.87
2022-08-18T14:05:00.126Z,993.92
2022-08-18T14:10:03.564Z,994.02
2022-08-18T14:15:00.120Z,994.03
2022-08-18T14:20:00.103Z,994.06
2022-08-18T14:25:00.293Z,993.99
2022-08-18T14:30:00.190Z,993.94
2022-08-18T14:35:00.992Z,993.93
2022-08-18T14:40:00.265Z,993.95
2022-08-18T14:45:03.471Z,993.93
2022-08-18T14:50:00.129Z,993.78
2022-08-18T14:55:00.069Z,993.62
2022-08-18T15:00:00.102Z,993.49
2022-08-18T15:05:00.075Z,993.26
2022-08-18T15:10:14.665Z,993.13
2022-08-18T15:15:00.075Z,993
2022-08-18T15:20:01.157Z,992.92
2022-08-18T15:25:00.076Z,992.93
2022-08-18T15:30:00.086Z,992.98
2022-08-18T15:35:00.088Z,992.95
2022-08-18T15:40:00.227Z,992.86
2022-08-18T15:45:00.096Z,992.84
2022-08-18T15:50:00.083Z,992.89
2022-08-18T15:55:02.092Z,992.77
2022-08-18T16:00:00.097Z,992.68
2022-08-18T16:05:08.986Z,992.65
2022-08-18T16:10:00.082Z,992.75
2022-08-18T16:15:00.185Z,992.78
2022-08-18T16:20:00.093Z,992.79
2022-08-18T16:25:00.079Z,992.78
2022-08-18T16:30:00.146Z,992.76
2022-08-18T16:35:00.147Z,992.73
2022-08-18T16:40:00.281Z,992.75
2022-08-18T16:45:00.133Z,992.81
2022-08-18T16:50:00.178Z,992.79
2022-08-18T16:55:00.077Z,992.87
2022-08-18T17:00:00.137Z,992.84
2022-08-18T17:05:00.089Z,992.83
2022-08-18T17:10:00.096Z,992.82
2022-08-18T17:15:00.095Z,992.84
2022-08-18T17:20:00.108Z,992.82
2022-08-18T17:25:00.106Z,992.82
2022-08-18T17:30:00.117Z,992.75
2022-08-18T17:35:00.084Z,992.73
2022-08-18T17:40:00.148Z,992.82
2022-08-18T17:45:00.510Z,992.83
2022-08-18T17:50:06.852Z,992.89
2022-08-18T17:55:00.156Z,992.85
2022-08-18T18:00:00.149Z,992.86
2022-08-18T18:05:00.093Z,992.93
2022-08-18T18:10:00.118Z,992.95
2022-08-18T18:15:00.096Z,992.99
2022-08-18T18:20:00.093Z,992.98
2022-08-18T18:25:00.096Z,992.99
2022-08-18T18:30:00.145Z,993.07
2022-08-18T18:35:00.103Z,993.08
2022-08-18T18:40:00.215Z,992.99
2022-08-18T18:45:00.100Z,993.07
2022-08-18T18:50:00.101Z,993.07
2022-08-18T18:55:00.107Z,993.13
2022-08-18T19:00:00.262Z,993.14
2022-08-18T19:05:00.118Z,993.1
2022-08-18T19:10:00.088Z,992.97
2022-08-18T19:15:00.642Z,992.96
2022-08-18T19:20:00.076Z,993.12
2022-08-18T19:25:00.116Z,993.09
2022-08-18T19:30:00.148Z,993.05
2022-08-18T19:35:00.157Z,993.25
2022-08-18T19:40:00.200Z,993.37
2022-08-18T19:45:15.701Z,993.46
2022-08-18T19:50:00.103Z,993.36
2022-08-18T19:55:00.154Z,993.29
2022-08-18T20:00:00.168Z,993.22
2022-08-18T20:05:00.119Z,993.21
2022-08-18T20:10:00.108Z,993.15
2022-08-18T20:15:00.121Z,993.16
2022-08-18T20:20:00.086Z,993.26
2022-08-18T20:25:00.093Z,993.34
2022-08-18T20:30:00.142Z,993.56
2022-08-18T20:35:00.088Z,993.72
2022-08-18T20:40:00.157Z,993.95
2022-08-18T20:45:00.113Z,994.06
2022-08-18T20:50:00.088Z,994.12
2022-08-18T20:55:00.148Z,994
2022-08-18T21:00:00.154Z,993.82
2022-08-18T21:05:00.138Z,993.78
2022-08-18T21:10:00.123Z,993.67
2022-08-18T21:15:00.091Z,993.53
2022-08-18T21:20:00.101Z,993.57
2022-08-18T21:25:00.089Z,993.61
2022-08-18T21:30:00.127Z,993.37
2022-08-18T21:35:00.076Z,993.22
2022-08-18T21:40:00.172Z,993.15
2022-08-18T21:45:00.680Z,993.04
2022-08-18T21:50:00.099Z,992.9
2022-08-18T21:55:00.085Z,992.64
2022-08-18T22:00:00.109Z,992.59
2022-08-18T22:05:00.089Z,992.45
2022-08-18T22:10:00.099Z,992.34
2022-08-18T22:15:00.101Z,992.23
2022-08-18T22:20:00.114Z,992.21
2022-08-18T22:25:00.115Z,992.33
2022-08-18T22:30:00.123Z,992.28
2022-08-18T22:35:00.094Z,992.41
2022-08-18T22:40:00.280Z,992.57
2022-08-18T22:45:04.857Z,992.64
2022-08-18T22:50:00.109Z,992.74
2022-08-18T22:55:00.635Z,992.85
2022-08-18T23:00:00.109Z,992.94
2022-08-18T23:05:00.114Z,992.92
2022-08-18T23:10:00.111Z,992.9
2022-08-18T23:15:00.095Z,992.87
2022-08-18T23:20:00.106Z,993.07
2022-08-18T23:25:00.089Z,993.04
2022-08-18T23:30:00.146Z,992.86
2022-08-18T23:35:00.086Z,992.98
2022-08-18T23:40:00.225Z,993
2022-08-18T23:45:00.098Z,993.04
2022-08-18T23:50:00.106Z,992.93
2022-08-18T23:55:00.100Z,992.9
